createdAt,value
2018-06-29T00:01:16.831Z,17.22
2018-06-29T00:03:43.861Z,17.21
2018-06-29T00:06:10.916Z,17.25
2018-06-29T00:08:37.930Z,17.18
2018-06-29T00:11:05.025Z,17.11
2018-06-29T00:13:32.083Z,17.02
2018-06-29T00:15:59.248Z,16.93
2018-06-29T00:18:26.257Z,16.91
2018-06-29T00:20:53.298Z,16.88
2018-06-29T00:23:20.843Z,16.83
2018-06-29T00:25:48.043Z,16.73
2018-06-29T00:28:15.142Z,16.70
2018-06-29T00:30:42.258Z,16.63
2018-06-29T00:33:09.372Z,16.54
2018-06-29T00:35:36.469Z,16.52
2018-06-29T00:38:03.519Z,16.45
2018-06-29T00:40:30.661Z,16.49
2018-06-29T00:42:57.696Z,16.46
2018-06-29T00:45:24.764Z,16.36
2018-06-29T00:47:51.786Z,16.30
2018-06-29T00:50:18.825Z,16.38
2018-06-29T00:52:45.930Z,16.42
2018-06-29T00:55:12.994Z,16.37
2018-06-29T00:57:40.003Z,16.31
2018-06-29T01:00:08.145Z,16.21
2018-06-29T01:02:35.465Z,16.13
2018-06-29T01:05:02.549Z,16.06
2018-06-29T01:07:29.659Z,15.98
2018-06-29T01:09:56.665Z,15.95
2018-06-29T01:12:23.794Z,15.90
2018-06-29T01:14:50.840Z,15.78
2018-06-29T01:17:17.872Z,15.77
2018-06-29T01:19:44.973Z,15.84
2018-06-29T01:22:12.329Z,15.68
2018-06-29T01:24:39.341Z,15.65
2018-06-29T01:27:06.346Z,15.58
2018-06-29T01:29:33.475Z,15.53
2018-06-29T01:32:00.486Z,15.54
2018-06-29T01:34:27.681Z,15.50
2018-06-29T01:36:54.764Z,15.53
2018-06-29T01:39:22.076Z,15.42
2018-06-29T01:41:49.104Z,15.49
2018-06-29T01:44:16.149Z,15.44
2018-06-29T01:46:43.397Z,15.49
2018-06-29T01:49:10.438Z,15.39
2018-06-29T01:51:37.605Z,15.34
2018-06-29T01:54:04.690Z,15.37
2018-06-29T01:56:31.756Z,15.41
2018-06-29T01:58:58.768Z,15.36
2018-06-29T02:01:25.806Z,15.26
2018-06-29T02:03:52.985Z,15.21
2018-06-29T02:06:20.112Z,15.19
2018-06-29T02:08:47.144Z,15.13
2018-06-29T02:11:14.202Z,14.98
2018-06-29T02:13:41.202Z,14.93
2018-06-29T02:16:08.211Z,15.06
2018-06-29T02:18:35.363Z,15.01
2018-06-29T02:21:02.449Z,15.00
2018-06-29T02:23:29.554Z,14.82
2018-06-29T02:25:56.587Z,14.77
2018-06-29T02:28:23.602Z,14.66
2018-06-29T02:30:50.730Z,14.59
2018-06-29T02:33:17.658Z,14.60
2018-06-29T02:35:44.671Z,14.49
2018-06-29T02:38:18.059Z,14.53
2018-06-29T02:40:45.235Z,14.53
2018-06-29T02:43:12.269Z,14.53
2018-06-29T02:45:39.269Z,14.58
2018-06-29T02:48:06.356Z,14.40
2018-06-29T02:50:33.406Z,14.24
2018-06-29T02:53:00.422Z,14.32
2018-06-29T02:55:27.522Z,14.37
2018-06-29T02:57:54.551Z,14.32
2018-06-29T03:00:21.594Z,14.31
2018-06-29T03:02:48.773Z,14.10
2018-06-29T03:05:15.889Z,13.98
2018-06-29T03:07:42.991Z,13.93
2018-06-29T03:10:10.038Z,13.93
2018-06-29T03:12:37.040Z,14.01
2018-06-29T03:15:04.379Z,14.04
2018-06-29T03:17:31.390Z,14.04
2018-06-29T03:19:58.430Z,13.97
2018-06-29T03:22:25.481Z,13.93
2018-06-29T03:24:52.512Z,13.91
2018-06-29T03:27:19.547Z,13.98
2018-06-29T03:29:46.622Z,13.75
2018-06-29T03:32:13.796Z,13.69
2018-06-29T03:34:40.825Z,13.59
2018-06-29T03:37:07.831Z,13.55
2018-06-29T03:39:34.933Z,13.60
2018-06-29T03:42:02.027Z,13.59
2018-06-29T03:44:29.073Z,13.71
2018-06-29T03:46:56.070Z,13.64
2018-06-29T03:49:23.113Z,13.69
2018-06-29T03:51:50.137Z,13.65
2018-06-29T03:54:17.244Z,13.56
2018-06-29T03:56:44.265Z,13.62
2018-06-29T03:59:11.694Z,13.69
2018-06-29T04:01:38.818Z,13.76
2018-06-29T04:04:06.093Z,13.67
2018-06-29T04:06:33.250Z,13.63
2018-06-29T04:09:00.305Z,13.72
2018-06-29T04:11:27.337Z,13.82
2018-06-29T04:13:54.768Z,13.67
2018-06-29T04:16:21.921Z,13.70
2018-06-29T04:18:48.941Z,13.70
2018-06-29T04:21:15.941Z,13.81
2018-06-29T04:23:42.993Z,13.84
2018-06-29T04:26:10.003Z,13.84
2018-06-29T04:28:37.092Z,13.96
2018-06-29T04:31:04.196Z,14.15
2018-06-29T04:33:31.434Z,14.27
2018-06-29T04:35:58.437Z,14.34
2018-06-29T04:38:25.450Z,14.48
2018-06-29T04:40:52.502Z,14.56
2018-06-29T04:43:19.659Z,14.60
2018-06-29T04:45:46.689Z,14.54
2018-06-29T04:48:13.773Z,14.62
2018-06-29T04:50:40.801Z,14.76
2018-06-29T04:53:07.899Z,14.82
2018-06-29T04:55:34.934Z,14.84
2018-06-29T04:58:01.988Z,14.94
2018-06-29T05:00:29.126Z,14.90
2018-06-29T05:02:56.181Z,15.01
2018-06-29T05:05:23.733Z,15.08
2018-06-29T05:07:50.763Z,15.14
2018-06-29T05:10:17.807Z,15.21
2018-06-29T05:12:44.867Z,15.21
2018-06-29T05:15:11.921Z,15.26
2018-06-29T05:17:38.952Z,15.30
2018-06-29T05:20:12.281Z,15.34
2018-06-29T05:22:39.656Z,15.41
2018-06-29T05:25:06.699Z,15.44
2018-06-29T05:27:33.790Z,15.64
2018-06-29T05:30:00.844Z,15.65
2018-06-29T05:32:27.942Z,15.65
2018-06-29T05:34:55.001Z,15.69
2018-06-29T05:37:22.838Z,15.74
2018-06-29T05:39:50.025Z,15.77
2018-06-29T05:42:17.291Z,15.85
2018-06-29T05:44:44.634Z,15.84
2018-06-29T05:47:11.670Z,15.95
2018-06-29T05:49:38.673Z,16.04
2018-06-29T05:52:05.799Z,16.18
2018-06-29T05:54:32.833Z,16.22
2018-06-29T05:57:00.195Z,16.31
2018-06-29T05:59:27.269Z,16.35
2018-06-29T06:01:54.377Z,16.49
2018-06-29T06:04:21.393Z,16.64
2018-06-29T06:06:55.545Z,16.65
2018-06-29T06:09:22.563Z,16.69
2018-06-29T06:11:49.740Z,16.84
2018-06-29T06:14:16.776Z,16.90
2018-06-29T06:16:43.813Z,16.91
2018-06-29T06:19:22.501Z,16.98
2018-06-29T06:21:49.552Z,17.08
2018-06-29T06:24:16.792Z,17.17
2018-06-29T06:26:43.825Z,17.22
2018-06-29T06:29:10.843Z,17.45
2018-06-29T06:31:37.951Z,17.49
2018-06-29T06:34:05.084Z,17.58
2018-06-29T06:36:32.549Z,17.71
2018-06-29T06:38:59.582Z,17.75
2018-06-29T06:41:26.630Z,17.91
2018-06-29T06:43:54.167Z,17.99
2018-06-29T06:46:21.196Z,18.10
2018-06-29T06:48:48.314Z,18.20
2018-06-29T06:51:15.350Z,18.25
2018-06-29T06:53:42.534Z,18.26
2018-06-29T06:56:09.504Z,18.40
2018-06-29T06:58:36.542Z,18.63
2018-06-29T07:01:03.793Z,18.72
2018-06-29T07:03:30.821Z,18.73
2018-06-29T07:05:57.970Z,18.73
2018-06-29T07:08:24.989Z,18.85
2018-06-29T07:10:52.010Z,18.87
2018-06-29T07:13:19.124Z,18.93
2018-06-29T07:15:46.141Z,18.96
2018-06-29T07:18:13.224Z,19.08
2018-06-29T07:20:40.316Z,19.18
2018-06-29T07:23:07.571Z,19.31
2018-06-29T07:25:34.590Z,19.29
2018-06-29T07:28:01.786Z,19.44
2018-06-29T07:30:28.816Z,19.48
2018-06-29T07:32:55.825Z,19.63
2018-06-29T07:35:22.868Z,19.71
2018-06-29T07:37:49.996Z,19.75
2018-06-29T07:40:17.025Z,19.82
2018-06-29T07:42:44.113Z,19.86
2018-06-29T07:45:11.120Z,19.99
2018-06-29T07:47:38.295Z,20.16
2018-06-29T07:50:05.325Z,20.22
2018-06-29T07:52:32.398Z,20.19
2018-06-29T07:54:59.391Z,20.19
2018-06-29T07:57:26.475Z,20.36
2018-06-29T07:59:53.518Z,20.37
2018-06-29T08:02:20.573Z,20.36
2018-06-29T08:04:47.611Z,20.50
2018-06-29T08:07:14.653Z,20.73
2018-06-29T08:09:41.762Z,20.74
2018-06-29T08:12:08.854Z,20.69
2018-06-29T08:14:35.880Z,20.83
2018-06-29T08:17:03.040Z,20.95
2018-06-29T08:20:18.758Z,21.06
2018-06-29T08:22:45.931Z,21.07
2018-06-29T08:25:14.237Z,21.08
2018-06-29T08:27:41.487Z,21.11
2018-06-29T08:30:09.445Z,21.26
2018-06-29T08:32:36.741Z,21.38
2018-06-29T08:35:03.808Z,21.47
2018-06-29T08:37:30.846Z,21.54
2018-06-29T08:39:58.017Z,21.59
2018-06-29T08:42:25.071Z,21.67
2018-06-29T08:44:52.106Z,21.71
2018-06-29T08:47:19.484Z,21.77
2018-06-29T08:49:46.509Z,21.76
2018-06-29T08:52:20.598Z,21.80
2018-06-29T08:54:47.608Z,21.91
2018-06-29T08:57:15.065Z,21.94
2018-06-29T08:59:42.169Z,21.94
2018-06-29T09:02:09.203Z,21.96
2018-06-29T09:04:36.206Z,22.06
2018-06-29T09:07:03.328Z,22.21
2018-06-29T09:09:30.611Z,22.26
2018-06-29T09:11:58.418Z,22.34
2018-06-29T09:14:25.565Z,22.51
2018-06-29T09:16:53.002Z,22.57
2018-06-29T09:19:20.063Z,22.57
2018-06-29T09:21:47.133Z,22.69
2018-06-29T09:24:14.435Z,22.79
2018-06-29T09:26:42.036Z,22.83
2018-06-29T09:29:09.141Z,23.16
2018-06-29T09:31:36.320Z,23.20
2018-06-29T09:34:03.398Z,23.38
2018-06-29T09:36:30.841Z,23.35
2018-06-29T09:38:57.858Z,23.24
2018-06-29T09:41:24.897Z,23.15
2018-06-29T09:43:51.953Z,23.08
2018-06-29T09:46:18.986Z,23.04
2018-06-29T09:48:46.084Z,23.22
2018-06-29T09:51:13.239Z,23.41
2018-06-29T09:53:40.273Z,23.65
2018-06-29T09:56:07.467Z,23.62
2018-06-29T09:58:34.641Z,23.80
2018-06-29T10:01:01.668Z,23.74
2018-06-29T10:03:28.736Z,23.76
2018-06-29T10:05:55.833Z,23.82
2018-06-29T10:08:22.878Z,23.71
2018-06-29T10:10:49.985Z,23.82
2018-06-29T10:13:17.012Z,23.90
2018-06-29T10:15:44.106Z,24.07
2018-06-29T10:18:11.157Z,24.13
2018-06-29T10:20:38.686Z,24.31
2018-06-29T10:23:05.918Z,24.17
2018-06-29T10:26:01.372Z,24.10
2018-06-29T10:28:33.434Z,24.29
2018-06-29T10:31:02.415Z,24.42
2018-06-29T10:33:37.152Z,24.39
2018-06-29T10:36:10.863Z,24.50
2018-06-29T10:38:46.232Z,24.61
2018-06-29T10:41:24.912Z,24.72
2018-06-29T10:43:57.457Z,24.74
2018-06-29T10:46:25.989Z,24.86
2018-06-29T10:48:56.528Z,24.92
2018-06-29T10:51:30.680Z,25.03
2018-06-29T10:54:05.416Z,25.20
2018-06-29T10:59:40.447Z,25.28
2018-06-29T11:02:13.426Z,25.18
2018-06-29T11:04:47.401Z,25.14
2018-06-29T11:07:16.483Z,25.11
2018-06-29T11:09:46.208Z,25.20
2018-06-29T11:12:17.537Z,25.34
2018-06-29T11:14:52.586Z,25.26
2018-06-29T11:17:28.471Z,25.35
2018-06-29T11:19:57.769Z,25.30
2018-06-29T11:22:31.827Z,25.54
2018-06-29T11:25:03.970Z,25.30
2018-06-29T11:27:37.565Z,25.32
2018-06-29T11:30:13.530Z,25.21
2018-06-29T11:32:47.666Z,25.44
2018-06-29T11:35:17.017Z,25.44
2018-06-29T11:38:03.072Z,25.27
2018-06-29T11:40:38.826Z,25.48
2018-06-29T11:43:17.605Z,25.61
2018-06-29T11:45:55.314Z,25.74
2018-06-29T11:48:31.352Z,25.78
2018-06-29T11:51:06.077Z,25.86
2018-06-29T11:53:37.719Z,25.82
2018-06-29T11:56:10.514Z,25.74
2018-06-29T11:58:38.068Z,25.71
2018-06-29T12:01:13.739Z,25.67
2018-06-29T12:03:46.862Z,25.83
2018-06-29T12:08:57.117Z,25.81
2018-06-29T12:11:27.401Z,25.89
2018-06-29T12:13:54.601Z,26.01
2018-06-29T12:16:21.672Z,26.18
2018-06-29T12:18:48.703Z,25.91
2018-06-29T12:21:15.717Z,25.99
2018-06-29T12:23:43.023Z,26.17
2018-06-29T12:26:10.058Z,26.42
2018-06-29T12:28:37.122Z,26.93
2018-06-29T12:31:04.209Z,27.21
2018-06-29T12:33:31.380Z,27.18
2018-06-29T12:35:58.422Z,27.04
2018-06-29T12:38:25.600Z,27.24
2018-06-29T12:40:52.693Z,27.38
2018-06-29T12:43:19.962Z,27.42
2018-06-29T12:45:46.983Z,27.61
2018-06-29T12:48:14.066Z,27.94
2018-06-29T12:50:41.205Z,27.73
2018-06-29T12:53:08.252Z,27.78
2018-06-29T12:55:35.506Z,27.90
2018-06-29T12:58:02.712Z,27.73
2018-06-29T13:00:29.743Z,27.65
2018-06-29T13:02:56.764Z,28.20
2018-06-29T13:05:23.904Z,28.34
2018-06-29T13:07:51.002Z,28.50
2018-06-29T13:10:18.039Z,28.63
2018-06-29T13:12:45.066Z,28.34
2018-06-29T13:15:12.132Z,28.21
2018-06-29T13:17:39.153Z,27.88
2018-06-29T13:20:07.085Z,27.97
2018-06-29T13:22:34.145Z,28.29
2018-06-29T13:25:01.211Z,27.60
2018-06-29T13:27:28.328Z,27.83
2018-06-29T13:29:55.346Z,28.41
2018-06-29T13:32:22.622Z,28.64
2018-06-29T13:34:49.658Z,28.79
2018-06-29T13:37:16.793Z,28.47
2018-06-29T13:39:44.015Z,28.34
2018-06-29T13:42:11.125Z,28.95
2018-06-29T13:44:38.175Z,28.78
2018-06-29T13:47:05.229Z,28.87
2018-06-29T13:49:32.321Z,28.52
2018-06-29T13:51:59.345Z,28.39
2018-06-29T13:54:26.365Z,28.37
2018-06-29T13:56:53.494Z,28.18
2018-06-29T13:59:20.622Z,28.44
2018-06-29T14:01:47.668Z,28.98
2018-06-29T14:04:14.826Z,29.26
2018-06-29T14:06:41.936Z,29.27
2018-06-29T14:09:09.065Z,29.17
2018-06-29T14:11:36.094Z,29.06
2018-06-29T14:14:03.169Z,29.25
2018-06-29T14:16:30.273Z,29.00
2018-06-29T14:18:57.294Z,28.97
2018-06-29T14:21:24.319Z,28.87
2018-06-29T14:23:51.444Z,28.71
2018-06-29T14:26:18.485Z,28.21
2018-06-29T14:28:45.573Z,28.15
2018-06-29T14:31:12.670Z,27.77
2018-06-29T14:33:39.796Z,27.97
2018-06-29T14:36:06.898Z,27.80
2018-06-29T14:38:33.962Z,27.61
2018-06-29T14:41:01.059Z,27.73
2018-06-29T14:43:28.014Z,27.72
2018-06-29T14:45:55.227Z,27.95
2018-06-29T14:48:22.252Z,27.89
2018-06-29T14:50:49.348Z,27.74
2018-06-29T14:53:16.393Z,27.68
2018-06-29T14:55:43.441Z,28.23
2018-06-29T14:58:10.469Z,28.18
2018-06-29T15:00:37.532Z,27.74
2018-06-29T15:03:04.677Z,27.63
2018-06-29T15:05:31.811Z,27.42
2018-06-29T15:07:58.916Z,27.84
2018-06-29T15:10:26.021Z,27.53
2018-06-29T15:12:53.035Z,27.46
2018-06-29T15:15:20.073Z,27.46
2018-06-29T15:17:47.146Z,27.67
2018-06-29T15:20:14.176Z,27.52
2018-06-29T15:22:41.195Z,27.27
2018-06-29T15:25:08.749Z,27.21
2018-06-29T15:27:35.857Z,26.96
2018-06-29T15:30:04.040Z,27.44
2018-06-29T15:32:31.062Z,27.13
2018-06-29T15:34:58.129Z,26.86
2018-06-29T15:37:25.170Z,27.06
2018-06-29T15:39:52.317Z,27.08
2018-06-29T15:42:19.399Z,27.12
2018-06-29T15:44:46.509Z,27.15
2018-06-29T15:47:13.597Z,26.76
2018-06-29T15:49:40.703Z,26.87
2018-06-29T15:52:07.813Z,26.91
2018-06-29T15:54:34.912Z,27.63
2018-06-29T15:57:01.961Z,27.22
2018-06-29T15:59:29.035Z,26.88
2018-06-29T16:01:56.072Z,27.13
2018-06-29T16:04:23.107Z,26.95
2018-06-29T16:06:50.254Z,26.90
2018-06-29T16:09:17.366Z,27.10
2018-06-29T16:13:56.081Z,26.93
2018-06-29T16:16:23.095Z,26.65
2018-06-29T16:18:50.116Z,26.39
2018-06-29T16:21:17.241Z,26.19
2018-06-29T16:23:44.287Z,26.29
2018-06-29T16:26:11.347Z,25.83
2018-06-29T16:28:38.374Z,26.00
2018-06-29T16:31:05.416Z,25.84
2018-06-29T16:33:32.703Z,25.78
2018-06-29T16:35:59.800Z,25.69
2018-06-29T16:38:26.912Z,25.50
2018-06-29T16:40:54.023Z,25.04
2018-06-29T16:43:21.066Z,24.78
2018-06-29T16:45:48.113Z,24.78
2018-06-29T16:48:15.234Z,24.81
2018-06-29T16:50:42.316Z,24.54
2018-06-29T16:53:09.369Z,24.42
2018-06-29T16:55:36.394Z,24.25
2018-06-29T16:58:03.533Z,24.19
2018-06-29T17:00:30.889Z,24.00
2018-06-29T17:02:57.895Z,23.81
2018-06-29T17:05:25.045Z,23.83
2018-06-29T17:07:52.085Z,23.78
2018-06-29T17:10:19.185Z,23.74
2018-06-29T17:12:46.202Z,23.61
2018-06-29T17:15:13.260Z,23.52
2018-06-29T17:17:40.388Z,23.36
2018-06-29T17:20:07.672Z,23.33
2018-06-29T17:22:34.936Z,23.29
2018-06-29T17:25:01.977Z,23.17
2018-06-29T17:27:28.977Z,23.11
2018-06-29T17:29:55.999Z,23.23
2018-06-29T17:32:23.045Z,23.18
2018-06-29T17:34:50.066Z,23.12
2018-06-29T17:37:17.224Z,23.12
2018-06-29T17:39:44.350Z,22.97
2018-06-29T17:42:11.365Z,22.87
2018-06-29T17:44:38.515Z,22.78
2018-06-29T17:47:05.613Z,22.78
2018-06-29T17:49:32.741Z,22.73
2018-06-29T17:51:59.785Z,22.58
2018-06-29T17:54:26.805Z,22.58
2018-06-29T17:56:53.814Z,22.58
2018-06-29T17:59:20.913Z,22.51
2018-06-29T18:01:48.015Z,22.44
2018-06-29T18:04:15.229Z,22.45
2018-06-29T18:06:42.221Z,22.42
2018-06-29T18:09:10.451Z,22.40
2018-06-29T18:11:37.568Z,22.29
2018-06-29T18:14:04.707Z,22.16
2018-06-29T18:16:31.790Z,22.03
2018-06-29T18:18:58.923Z,21.97
2018-06-29T18:21:26.003Z,21.91
2018-06-29T18:23:53.046Z,21.91
2018-06-29T18:26:20.052Z,21.87
2018-06-29T18:28:47.259Z,21.87
2018-06-29T18:31:14.351Z,21.88
2018-06-29T18:33:41.473Z,21.90
2018-06-29T18:36:08.497Z,21.89
2018-06-29T18:38:35.493Z,21.75
2018-06-29T18:41:02.509Z,21.64
2018-06-29T18:43:29.589Z,21.54
2018-06-29T18:45:56.624Z,21.58
2018-06-29T18:48:23.694Z,21.52
2018-06-29T18:50:50.733Z,21.43
2018-06-29T18:53:17.830Z,21.43
2018-06-29T18:55:44.902Z,21.39
2018-06-29T18:58:11.921Z,21.30
2018-06-29T19:00:39.009Z,21.30
2018-06-29T19:03:06.030Z,21.22
2018-06-29T19:05:33.148Z,21.18
2018-06-29T19:08:00.265Z,21.12
2018-06-29T19:10:27.304Z,21.16
2018-06-29T19:12:54.305Z,21.12
2018-06-29T19:15:21.374Z,21.09
2018-06-29T19:17:48.477Z,20.84
2018-06-29T19:20:15.605Z,20.84
2018-06-29T19:22:42.701Z,20.82
2018-06-29T19:25:09.770Z,20.72
2018-06-29T19:27:36.812Z,20.61
2018-06-29T19:30:04.499Z,20.62
2018-06-29T19:32:31.501Z,20.53
2018-06-29T19:34:58.507Z,20.40
2018-06-29T19:37:25.626Z,20.30
2018-06-29T19:39:52.658Z,20.24
2018-06-29T19:42:19.673Z,20.34
2018-06-29T19:44:46.826Z,20.18
2018-06-29T19:47:13.866Z,20.14
2018-06-29T19:49:41.135Z,20.07
2018-06-29T19:52:08.355Z,19.89
2018-06-29T19:54:35.389Z,19.86
2018-06-29T19:57:02.496Z,19.86
2018-06-29T19:59:29.900Z,19.74
2018-06-29T20:01:57.085Z,19.73
2018-06-29T20:04:24.143Z,19.65
2018-06-29T20:06:51.254Z,19.56
2018-06-29T20:09:18.374Z,19.42
2018-06-29T20:11:45.452Z,19.36
2018-06-29T20:14:13.558Z,19.25
2018-06-29T20:16:40.584Z,19.26
2018-06-29T20:19:07.633Z,19.20
2018-06-29T20:21:34.753Z,19.16
2018-06-29T20:24:01.785Z,19.08
2018-06-29T20:26:28.785Z,19.07
2018-06-29T20:28:55.798Z,19.05
2018-06-29T20:31:22.896Z,19.00
2018-06-29T20:33:50.022Z,18.89
2018-06-29T20:36:17.044Z,18.90
2018-06-29T20:38:44.229Z,18.83
2018-06-29T20:41:11.158Z,18.79
2018-06-29T20:43:38.314Z,18.80
2018-06-29T20:46:05.277Z,18.68
2018-06-29T20:48:32.574Z,18.65
2018-06-29T20:50:59.654Z,18.56
2018-06-29T20:53:26.729Z,18.50
2018-06-29T20:55:53.936Z,18.49
2018-06-29T20:58:20.977Z,18.43
2018-06-29T21:00:48.075Z,18.39
2018-06-29T21:03:15.117Z,18.34
2018-06-29T21:05:42.119Z,18.23
2018-06-29T21:08:09.381Z,18.21
2018-06-29T21:10:36.551Z,18.10
2018-06-29T21:13:03.650Z,18.10
2018-06-29T21:15:30.675Z,18.03
2018-06-29T21:17:57.758Z,17.90
2018-06-29T21:20:24.777Z,17.88
2018-06-29T21:22:51.866Z,17.87
2018-06-29T21:25:18.962Z,17.86
2018-06-29T21:27:45.937Z,17.77
2018-06-29T21:30:12.970Z,17.72
2018-06-29T21:32:40.186Z,17.70
2018-06-29T21:35:07.340Z,17.69
2018-06-29T21:37:34.465Z,17.63
2018-06-29T21:40:01.482Z,17.55
2018-06-29T21:42:28.555Z,17.50
2018-06-29T21:44:55.696Z,17.49
2018-06-29T21:47:22.886Z,17.46
2018-06-29T21:49:49.905Z,17.49
2018-06-29T21:52:17.092Z,17.43
2018-06-29T21:54:44.335Z,17.35
2018-06-29T21:57:11.540Z,17.31
2018-06-29T21:59:38.541Z,17.30
2018-06-29T22:02:05.707Z,17.20
2018-06-29T22:04:32.717Z,17.29
2018-06-29T22:06:59.738Z,17.23
2018-06-29T22:09:26.777Z,17.15
2018-06-29T22:11:53.808Z,17.13
2018-06-29T22:14:20.849Z,17.07
2018-06-29T22:16:47.932Z,16.98
2018-06-29T22:19:15.090Z,16.92
2018-06-29T22:21:42.175Z,16.94
2018-06-29T22:24:09.185Z,16.89
2018-06-29T22:26:36.262Z,16.86
2018-06-29T22:29:03.461Z,16.91
2018-06-29T22:31:30.473Z,16.80
2018-06-29T22:33:57.728Z,16.77
2018-06-29T22:36:26.249Z,16.74
2018-06-29T22:38:53.370Z,16.78
2018-06-29T22:41:20.432Z,16.70
2018-06-29T22:43:47.534Z,16.69
2018-06-29T22:46:14.654Z,16.70
2018-06-29T22:48:41.749Z,16.68
2018-06-29T22:51:08.800Z,16.67
2018-06-29T22:53:35.901Z,16.62
2018-06-29T22:56:02.989Z,16.60
2018-06-29T22:58:30.177Z,16.52
2018-06-29T23:00:57.264Z,16.54
2018-06-29T23:03:28.873Z,16.54
2018-06-29T23:05:55.899Z,16.44
2018-06-29T23:08:23.085Z,16.42
2018-06-29T23:10:50.189Z,16.37
2018-06-29T23:13:17.197Z,16.33
2018-06-29T23:15:44.228Z,16.36
2018-06-29T23:18:11.418Z,16.35
2018-06-29T23:20:38.502Z,16.29
2018-06-29T23:23:05.613Z,16.32
2018-06-29T23:25:32.621Z,16.31
2018-06-29T23:27:59.721Z,16.29
2018-06-29T23:30:26.834Z,16.25
2018-06-29T23:32:53.884Z,16.19
2018-06-29T23:35:20.897Z,16.18
2018-06-29T23:37:47.931Z,16.28
2018-06-29T23:40:14.947Z,16.26
2018-06-29T23:42:41.989Z,16.22
2018-06-29T23:45:09.073Z,16.21
2018-06-29T23:47:36.176Z,16.35
2018-06-29T23:50:03.242Z,16.14
2018-06-29T23:52:30.651Z,15.91
2018-06-29T23:54:57.672Z,15.85
2018-06-29T23:57:24.754Z,15.90
2018-06-29T23:59:51.867Z,15.83
